Pagrindinis puslapis
METAR-TAF:

METAR-TAF

Oro uostai :

Clayton, Naujoji Meksika, Jungtinės Amerikos Valstijos

platuma: 36-26-54N, ilguma: 103-09-11W, Aukštis: 1513 m

Dabartinis oras

Ataskaita buvo paskelbta 27 minutes, ne 08:55 UTC
Vėjas 4 kt iš Pietvakarių
Temperatūra 17°C
Drėgmė 63%
Slėgis 1018 hPa
Matomumas: 16.1 km
Giedras dangus

METAR: KCAO 020855Z AUTO 22004KT 10SM CLR 17/10 A3007 RMK AO2 SLP108 T01670100 51002 $

Laikas: 03:22 (09:22 UTC)


TAF: trūkstamas

Orai ataskaitas ir orų prognozės (METAR, TAF).

turimą stotys yra geltonos ir raudonos taškus žemėlapyje.

Perkelti pele per norėdami pamatyti stoties vardą.

Tada spustelėkite, norėdami matyti oro stebėjimo ir prognozės.

Norėdami pakeisti žemėlapį: spustelėkite ant žalios mygtukų su juodo kryžiaus žemyn,; žalią mygtuką su brūkšneliu, jei norite nutolinti; arba žalių rodyklių gretimoms žemėlapius.


METAR-TAF: